createdAt,value
2023-01-05T00:00:46.008Z,11.45
2023-01-05T00:01:46.347Z,11.43
2023-01-05T00:02:46.566Z,11.43
2023-01-05T00:03:47.878Z,11.43
2023-01-05T00:04:48.062Z,11.43
2023-01-05T00:05:49.008Z,11.41
2023-01-05T00:06:49.658Z,11.37
2023-01-05T00:07:50.741Z,11.35
2023-01-05T00:08:51.661Z,11.38
2023-01-05T00:09:51.589Z,11.37
2023-01-05T00:10:52.543Z,11.41
2023-01-05T00:11:53.200Z,11.4
2023-01-05T00:12:53.919Z,11.43
2023-01-05T00:13:54.559Z,11.37
2023-01-05T00:14:55.181Z,11.37
2023-01-05T00:15:55.400Z,11.38
2023-01-05T00:16:56.092Z,11.37
2023-01-05T00:17:55.972Z,11.35
2023-01-05T00:18:57.207Z,11.4
2023-01-05T00:19:57.880Z,11.37
2023-01-05T00:20:58.275Z,11.43
2023-01-05T00:21:59.281Z,11.41
2023-01-05T00:22:59.313Z,11.4
2023-01-05T00:24:00.524Z,11.43
2023-01-05T00:25:11.074Z,11.43
2023-01-05T00:26:00.633Z,11.4
2023-01-05T00:27:01.853Z,11.44
2023-01-05T00:28:01.946Z,11.52
2023-01-05T00:29:03.170Z,11.4
2023-01-05T00:30:04.137Z,11.48
2023-01-05T00:31:04.071Z,11.45
2023-01-05T00:32:05.204Z,11.48
2023-01-05T00:33:05.470Z,11.6
2023-01-05T00:34:05.741Z,11.53
2023-01-05T00:35:06.417Z,11.53
2023-01-05T00:36:06.969Z,11.58
2023-01-05T00:37:06.603Z,11.52
2023-01-05T00:38:07.664Z,11.51
2023-01-05T00:39:08.195Z,11.58
2023-01-05T00:40:08.483Z,11.53
2023-01-05T00:41:08.985Z,11.59
2023-01-05T00:42:09.488Z,11.6
2023-01-05T00:43:10.447Z,11.52
2023-01-05T00:44:10.869Z,11.7
2023-01-05T00:45:12.159Z,11.62
2023-01-05T00:46:12.914Z,11.63
2023-01-05T00:47:13.131Z,11.62
2023-01-05T00:48:13.763Z,11.53
2023-01-05T00:49:14.708Z,11.63
2023-01-05T00:50:15.378Z,11.55
2023-01-05T00:51:15.335Z,11.56
2023-01-05T00:52:16.585Z,11.67
2023-01-05T00:53:17.201Z,11.62
2023-01-05T00:54:17.460Z,11.67
2023-01-05T00:55:17.407Z,11.76
2023-01-05T00:56:17.347Z,11.7
2023-01-05T00:57:18.566Z,11.74
2023-01-05T00:58:19.594Z,11.81
2023-01-05T00:59:20.260Z,11.78
2023-01-05T01:00:20.544Z,11.85
2023-01-05T01:01:21.556Z,11.91
2023-01-05T01:02:22.723Z,12.05
2023-01-05T01:03:23.077Z,11.89
2023-01-05T01:04:23.511Z,12.08
2023-01-05T01:05:23.883Z,12.07
2023-01-05T01:06:25.093Z,12.03
2023-01-05T01:07:25.292Z,12.05
2023-01-05T01:08:25.967Z,12.1
2023-01-05T01:09:26.178Z,12.18
2023-01-05T01:10:26.385Z,12.15
2023-01-05T01:11:27.045Z,12.28
2023-01-05T01:12:27.710Z,12.37
2023-01-05T01:13:27.951Z,12.35
2023-01-05T01:14:29.152Z,12.39
2023-01-05T01:15:30.251Z,12.37
2023-01-05T01:16:30.734Z,12.39
2023-01-05T01:17:31.213Z,12.37
2023-01-05T01:18:31.948Z,12.39
2023-01-05T01:19:32.463Z,12.5
2023-01-05T01:20:32.849Z,12.54
2023-01-05T01:21:34.057Z,12.54
2023-01-05T01:22:35.032Z,12.69
2023-01-05T01:23:36.029Z,12.66
2023-01-05T01:24:36.253Z,12.68
2023-01-05T01:25:37.526Z,12.68
2023-01-05T01:26:38.026Z,12.65
2023-01-05T01:27:38.528Z,12.73
2023-01-05T01:28:38.596Z,12.78
2023-01-05T01:29:38.968Z,12.81
2023-01-05T01:30:39.824Z,12.81
2023-01-05T01:31:40.458Z,12.81
2023-01-05T01:32:40.121Z,12.83
2023-01-05T01:33:41.382Z,12.69
2023-01-05T01:35:42.554Z,12.66
2023-01-05T01:36:42.803Z,12.69
2023-01-05T01:37:44.023Z,12.54
2023-01-05T01:38:45.104Z,12.53
2023-01-05T01:39:45.182Z,12.57
2023-01-05T01:40:46.387Z,12.58
2023-01-05T01:41:46.332Z,12.51
2023-01-05T01:42:46.548Z,12.54
2023-01-05T01:43:47.499Z,12.53
2023-01-05T01:44:47.462Z,12.51
2023-01-05T01:45:48.589Z,12.5
2023-01-05T01:46:48.625Z,12.48
2023-01-05T01:47:49.131Z,12.43
2023-01-05T01:48:49.206Z,12.39
2023-01-05T01:49:50.183Z,12.43
2023-01-05T01:50:50.118Z,12.37
2023-01-05T01:51:51.120Z,12.36
2023-01-05T01:52:52.074Z,12.39
2023-01-05T01:53:52.082Z,12.35
2023-01-05T01:54:52.490Z,12.36
2023-01-05T01:55:53.733Z,12.36
2023-01-05T01:56:54.257Z,12.35
2023-01-05T01:57:55.210Z,12.33
2023-01-05T01:58:55.398Z,12.36
2023-01-05T01:59:55.760Z,12.4
2023-01-05T02:00:56.581Z,12.36
2023-01-05T02:01:57.642Z,12.33
2023-01-05T02:02:57.994Z,12.45
2023-01-05T02:03:58.579Z,12.35
2023-01-05T02:04:59.280Z,12.43
2023-01-05T02:05:59.538Z,12.39
2023-01-05T02:06:59.804Z,12.43
2023-01-05T02:08:00.321Z,12.36
2023-01-05T02:09:00.433Z,12.35
2023-01-05T02:10:01.085Z,12.39
2023-01-05T02:11:01.335Z,12.29
2023-01-05T02:12:01.552Z,12.26
2023-01-05T02:13:01.505Z,12.3
2023-01-05T02:14:02.803Z,12.28
2023-01-05T02:15:02.994Z,12.14
2023-01-05T02:16:03.249Z,12.25
2023-01-05T02:17:03.893Z,12.14
2023-01-05T02:18:04.644Z,12.14
2023-01-05T02:19:05.031Z,12.14
2023-01-05T02:20:05.532Z,12.15
2023-01-05T02:21:07.211Z,12.18
2023-01-05T02:22:05.873Z,12.21
2023-01-05T02:23:06.824Z,12.08
2023-01-05T02:24:07.081Z,12.07
2023-01-05T02:25:08.049Z,12.2
2023-01-05T02:26:08.337Z,12.18
2023-01-05T02:27:09.308Z,12.1
2023-01-05T02:28:09.277Z,12.18
2023-01-05T02:29:10.641Z,12.15
2023-01-05T02:30:11.563Z,12.17
2023-01-05T02:31:12.280Z,12.08
2023-01-05T02:32:12.744Z,12.25
2023-01-05T02:33:12.944Z,12.07
2023-01-05T02:34:13.603Z,12.15
2023-01-05T02:35:14.831Z,12.2
2023-01-05T02:36:15.058Z,12.17
2023-01-05T02:37:15.886Z,12.18
2023-01-05T02:38:16.169Z,12.18
2023-01-05T02:39:16.216Z,12.17
2023-01-05T02:40:16.426Z,12.23
2023-01-05T02:41:17.349Z,12.21
2023-01-05T02:42:18.403Z,12.21
2023-01-05T02:43:18.698Z,12.23
2023-01-05T02:44:20.078Z,12.18
2023-01-05T02:45:20.001Z,12.23
2023-01-05T02:46:21.091Z,12.21
2023-01-05T02:47:21.881Z,12.21
2023-01-05T02:48:22.240Z,12.23
2023-01-05T02:49:23.876Z,12.21
2023-01-05T02:50:24.441Z,12.21
2023-01-05T02:51:24.412Z,12.2
2023-01-05T02:52:24.358Z,12.18
2023-01-05T02:53:25.600Z,12.25
2023-01-05T02:54:26.242Z,12.18
2023-01-05T02:55:26.465Z,12.3
2023-01-05T02:56:26.697Z,12.28
2023-01-05T02:57:26.726Z,12.32
2023-01-05T02:58:26.981Z,12.23
2023-01-05T02:59:28.006Z,12.21
2023-01-05T03:00:28.286Z,12.25
2023-01-05T03:01:29.259Z,12.29
2023-01-05T03:02:29.918Z,12.3
2023-01-05T03:03:30.497Z,12.26
2023-01-05T03:04:30.986Z,12.28
2023-01-05T03:05:31.935Z,12.18
2023-01-05T03:06:32.617Z,12.17
2023-01-05T03:07:33.825Z,12.28
2023-01-05T03:08:38.886Z,12.26
2023-01-05T03:09:34.336Z,12.28
2023-01-05T03:10:34.547Z,12.21
2023-01-05T03:11:35.480Z,12.32
2023-01-05T03:12:35.707Z,12.26
2023-01-05T03:13:36.643Z,12.28
2023-01-05T03:14:36.596Z,12.32
2023-01-05T03:15:37.673Z,12.32
2023-01-05T03:16:38.272Z,12.32
2023-01-05T03:17:39.219Z,12.29
2023-01-05T03:18:39.721Z,12.29
2023-01-05T03:19:40.703Z,12.32
2023-01-05T03:20:40.962Z,12.32
2023-01-05T03:21:41.531Z,12.33
2023-01-05T03:22:42.185Z,12.39
2023-01-05T03:23:42.867Z,12.29
2023-01-05T03:24:43.177Z,12.39
2023-01-05T03:25:44.177Z,12.33
2023-01-05T03:26:45.415Z,12.35
2023-01-05T03:27:45.363Z,12.36
2023-01-05T03:28:45.870Z,12.4
2023-01-05T03:29:45.927Z,12.48
2023-01-05T03:30:46.634Z,12.43
2023-01-05T03:31:46.740Z,12.48
2023-01-05T03:32:47.969Z,12.45
2023-01-05T03:33:47.908Z,12.54
2023-01-05T03:34:49.276Z,12.54
2023-01-05T03:35:49.555Z,12.51
2023-01-05T03:36:50.773Z,12.51
2023-01-05T03:37:50.422Z,12.51
2023-01-05T03:38:51.926Z,12.54
2023-01-05T03:39:51.994Z,12.55
2023-01-05T03:40:53.308Z,12.58
2023-01-05T03:41:53.251Z,12.51
2023-01-05T03:42:53.775Z,12.63
2023-01-05T03:43:53.707Z,12.66
2023-01-05T03:44:54.955Z,12.68
2023-01-05T03:45:56.102Z,12.61
2023-01-05T03:46:56.929Z,12.7
2023-01-05T03:47:57.858Z,12.8
2023-01-05T03:48:58.790Z,12.72
2023-01-05T03:49:59.125Z,12.8
2023-01-05T03:50:59.542Z,12.78
2023-01-05T03:51:59.852Z,12.87
2023-01-05T03:52:59.769Z,12.9
2023-01-05T03:54:00.010Z,12.88
2023-01-05T03:55:00.243Z,12.8
2023-01-05T03:56:00.909Z,12.9
2023-01-05T03:57:02.119Z,12.84
2023-01-05T03:58:02.370Z,12.9
2023-01-05T03:59:03.605Z,12.88
2023-01-05T04:00:03.677Z,12.9
2023-01-05T04:01:04.532Z,12.94
2023-01-05T04:02:05.446Z,12.95
2023-01-05T04:03:05.895Z,12.9
2023-01-05T04:04:06.089Z,12.9
2023-01-05T04:05:06.310Z,12.9
2023-01-05T04:06:07.295Z,12.87
2023-01-05T04:07:07.560Z,12.95
2023-01-05T04:08:07.497Z,13.01
2023-01-05T04:09:08.708Z,12.98
2023-01-05T04:10:09.111Z,13.01
2023-01-05T04:11:10.090Z,13.06
2023-01-05T04:12:10.066Z,13.05
2023-01-05T04:13:10.997Z,13.02
2023-01-05T04:14:11.683Z,12.99
2023-01-05T04:15:12.723Z,13.05
2023-01-05T04:16:13.175Z,13.06
2023-01-05T04:17:13.348Z,13.06
2023-01-05T04:18:13.272Z,13.05
2023-01-05T04:19:14.469Z,13.03
2023-01-05T04:20:15.492Z,13.06
2023-01-05T04:21:15.716Z,13.08
2023-01-05T04:22:15.649Z,13.02
2023-01-05T04:23:16.984Z,13.06
2023-01-05T04:24:17.206Z,13.02
2023-01-05T04:25:17.448Z,13.02
2023-01-05T04:26:18.678Z,13.01
2023-01-05T04:27:18.620Z,12.99
2023-01-05T04:28:19.297Z,12.98
2023-01-05T04:29:19.964Z,12.9
2023-01-05T04:30:21.175Z,12.91
2023-01-05T04:31:21.924Z,12.94
2023-01-05T04:32:22.609Z,13.01
2023-01-05T04:33:22.802Z,12.99
2023-01-05T04:34:23.019Z,12.95
2023-01-05T04:35:23.961Z,13.02
2023-01-05T04:36:24.180Z,12.99
2023-01-05T04:37:24.396Z,12.99
2023-01-05T04:38:24.369Z,12.94
2023-01-05T04:39:24.586Z,12.99
2023-01-05T04:40:25.391Z,13.02
2023-01-05T04:41:26.320Z,12.94
2023-01-05T04:42:27.000Z,13.03
2023-01-05T04:43:27.231Z,12.99
2023-01-05T04:44:28.449Z,13.03
2023-01-05T04:45:28.690Z,12.98
2023-01-05T04:46:28.790Z,12.94
2023-01-05T04:47:29.136Z,12.95
2023-01-05T04:48:29.062Z,12.9
2023-01-05T04:49:29.311Z,12.95
2023-01-05T04:50:29.872Z,12.9
2023-01-05T04:51:30.830Z,12.86
2023-01-05T04:52:30.775Z,12.88
2023-01-05T04:53:32.285Z,12.9
2023-01-05T04:54:33.336Z,12.99
2023-01-05T04:55:34.162Z,12.99
2023-01-05T04:56:34.371Z,12.98
2023-01-05T04:57:35.293Z,12.99
2023-01-05T04:58:35.800Z,12.93
2023-01-05T04:59:36.764Z,12.9
2023-01-05T05:00:37.526Z,12.9
2023-01-05T05:01:38.206Z,12.84
2023-01-05T05:02:38.795Z,12.88
2023-01-05T05:03:39.252Z,12.91
2023-01-05T05:04:40.021Z,12.93
2023-01-05T05:05:40.274Z,12.95
2023-01-05T05:06:40.990Z,12.91
2023-01-05T05:07:41.907Z,12.94
2023-01-05T05:08:42.143Z,12.94
2023-01-05T05:09:41.772Z,12.87
2023-01-05T05:10:43.159Z,12.9
2023-01-05T05:11:44.119Z,12.9
2023-01-05T05:12:44.617Z,12.9
2023-01-05T05:13:44.559Z,12.93
2023-01-05T05:14:45.804Z,12.9
2023-01-05T05:15:46.293Z,12.88
2023-01-05T05:16:46.341Z,12.81
2023-01-05T05:17:47.579Z,12.88
2023-01-05T05:18:48.085Z,12.86
2023-01-05T05:19:48.589Z,12.9
2023-01-05T05:20:48.318Z,12.86
2023-01-05T05:21:49.576Z,12.81
2023-01-05T05:22:49.804Z,12.83
2023-01-05T05:23:49.728Z,12.76
2023-01-05T05:24:51.222Z,12.81
2023-01-05T05:25:51.600Z,12.84
2023-01-05T05:26:51.968Z,12.84
2023-01-05T05:27:52.925Z,12.78
2023-01-05T05:28:54.123Z,12.81
2023-01-05T05:29:54.081Z,12.8
2023-01-05T05:30:54.848Z,12.78
2023-01-05T05:31:55.746Z,12.75
2023-01-05T05:32:56.724Z,12.73
2023-01-05T05:33:56.907Z,12.76
2023-01-05T05:34:57.122Z,12.75
2023-01-05T05:35:58.072Z,12.8
2023-01-05T05:36:59.012Z,12.78
2023-01-05T05:38:02.279Z,12.8
2023-01-05T05:38:59.866Z,12.72
2023-01-05T05:39:59.801Z,12.66
2023-01-05T05:40:59.995Z,12.62
2023-01-05T05:42:00.539Z,12.66
2023-01-05T05:43:01.039Z,12.65
2023-01-05T05:44:01.352Z,12.57
2023-01-05T05:45:01.288Z,12.69
2023-01-05T05:46:02.371Z,12.66
2023-01-05T05:47:03.117Z,12.69
2023-01-05T05:48:03.093Z,12.65
2023-01-05T05:49:03.031Z,12.57
2023-01-05T05:50:03.722Z,12.54
2023-01-05T05:51:05.057Z,12.57
2023-01-05T05:52:05.599Z,12.58
2023-01-05T05:53:05.821Z,12.62
2023-01-05T05:54:06.039Z,12.57
2023-01-05T05:55:06.992Z,12.54
2023-01-05T05:56:08.277Z,12.55
2023-01-05T05:57:08.932Z,12.51
2023-01-05T05:58:10.152Z,12.37
2023-01-05T05:59:10.642Z,12.43
2023-01-05T06:00:11.292Z,12.5
2023-01-05T06:01:12.806Z,12.44
2023-01-05T06:02:13.278Z,12.4
2023-01-05T06:03:14.110Z,12.43
2023-01-05T06:04:14.209Z,12.4
2023-01-05T06:05:14.910Z,12.4
2023-01-05T06:06:16.135Z,12.45
2023-01-05T06:07:16.643Z,12.4
2023-01-05T06:08:16.341Z,12.39
2023-01-05T06:09:17.728Z,12.39
2023-01-05T06:10:18.236Z,12.48
2023-01-05T06:11:18.399Z,12.43
2023-01-05T06:12:19.796Z,12.4
2023-01-05T06:13:20.425Z,12.39
2023-01-05T06:14:20.648Z,12.43
2023-01-05T06:15:20.588Z,12.39
2023-01-05T06:16:21.241Z,12.4
2023-01-05T06:17:21.885Z,12.45
2023-01-05T06:18:22.569Z,12.47
2023-01-05T06:19:23.246Z,12.45
2023-01-05T06:20:23.901Z,12.43
2023-01-05T06:21:24.935Z,12.4
2023-01-05T06:22:26.193Z,12.44
2023-01-05T06:23:27.151Z,12.48
2023-01-05T06:24:27.358Z,12.4
2023-01-05T06:25:27.430Z,12.36
2023-01-05T06:26:28.692Z,12.39
2023-01-05T06:27:29.934Z,12.36
2023-01-05T06:28:30.186Z,12.44
2023-01-05T06:29:30.675Z,12.36
2023-01-05T06:30:30.599Z,12.37
2023-01-05T06:31:31.602Z,12.39
2023-01-05T06:32:31.420Z,12.39
2023-01-05T06:33:31.793Z,12.35
2023-01-05T06:34:33.282Z,12.3
2023-01-05T06:35:33.517Z,12.44
2023-01-05T06:36:34.219Z,12.37
2023-01-05T06:37:34.180Z,12.32
2023-01-05T06:38:34.552Z,12.33
2023-01-05T06:39:35.191Z,12.33
2023-01-05T06:40:35.885Z,12.4
2023-01-05T06:41:36.226Z,12.43
2023-01-05T06:42:37.148Z,12.33
2023-01-05T06:43:36.795Z,12.29
2023-01-05T06:44:38.300Z,12.3
2023-01-05T06:45:39.417Z,12.33
2023-01-05T06:46:39.485Z,12.29
2023-01-05T06:47:39.400Z,12.26
2023-01-05T06:48:39.470Z,12.18
2023-01-05T06:49:40.376Z,12.3
2023-01-05T06:50:40.609Z,12.18
2023-01-05T06:51:41.271Z,12.32
2023-01-05T06:52:41.803Z,12.25
2023-01-05T06:53:41.440Z,12.25
2023-01-05T06:54:42.669Z,12.3
2023-01-05T06:55:43.891Z,12.33
2023-01-05T06:56:44.203Z,12.21
2023-01-05T06:57:44.444Z,12.29
2023-01-05T06:58:45.090Z,12.28
2023-01-05T06:59:45.787Z,12.3
2023-01-05T07:00:46.259Z,12.28
2023-01-05T07:01:47.224Z,12.32
2023-01-05T07:02:47.500Z,12.25
2023-01-05T07:03:48.427Z,12.28
2023-01-05T07:04:48.779Z,12.26
2023-01-05T07:05:49.430Z,12.23
2023-01-05T07:06:50.391Z,12.23
2023-01-05T07:07:51.081Z,12.26
2023-01-05T07:08:51.986Z,12.23
2023-01-05T07:09:52.490Z,12.17
2023-01-05T07:10:53.134Z,12.14
2023-01-05T07:11:53.253Z,12.2
2023-01-05T07:12:54.467Z,12.18
2023-01-05T07:13:54.412Z,12.25
2023-01-05T07:15:01.393Z,12.21
2023-01-05T07:15:56.012Z,12.17
2023-01-05T07:16:56.520Z,12.2
2023-01-05T07:17:56.467Z,12.15
2023-01-05T07:18:56.710Z,12.15
2023-01-05T07:19:57.380Z,12.15
2023-01-05T07:20:57.777Z,12.15
2023-01-05T07:22:02.632Z,12.14
2023-01-05T07:22:59.306Z,12.1
2023-01-05T07:24:00.247Z,12.23
2023-01-05T07:25:00.476Z,12.08
2023-01-05T07:26:01.410Z,12.11
2023-01-05T07:27:10.032Z,12.12
2023-01-05T07:28:02.098Z,12.05
2023-01-05T07:29:02.317Z,12.08
2023-01-05T07:30:02.827Z,12.07
2023-01-05T07:31:03.346Z,12.05
2023-01-05T07:32:04.272Z,12.11
2023-01-05T07:33:04.564Z,12.15
2023-01-05T07:34:04.838Z,12.18
2023-01-05T07:35:05.861Z,12.18
2023-01-05T07:36:06.138Z,12.15
2023-01-05T07:37:06.840Z,12.21
2023-01-05T07:38:07.093Z,12.17
2023-01-05T07:39:07.750Z,12.18
2023-01-05T07:40:08.454Z,12.1
2023-01-05T07:41:09.724Z,12.07
2023-01-05T07:42:10.360Z,12.08
2023-01-05T07:43:11.023Z,12.08
2023-01-05T07:44:12.235Z,12.1
2023-01-05T07:45:12.455Z,12.18
2023-01-05T07:46:13.733Z,12.18
2023-01-05T07:47:14.186Z,12.21
2023-01-05T07:48:20.400Z,12.2
2023-01-05T07:49:15.000Z,12.21
2023-01-05T07:50:15.260Z,12.18
2023-01-05T07:51:15.811Z,12.17
2023-01-05T07:52:16.542Z,12.18
2023-01-05T07:53:16.492Z,12.17
2023-01-05T07:54:17.138Z,12.18
2023-01-05T07:55:18.082Z,12.18
2023-01-05T07:56:18.636Z,12.15
2023-01-05T07:57:18.893Z,12.18
2023-01-05T07:58:19.185Z,12.17
2023-01-05T07:59:19.425Z,12.17
2023-01-05T08:00:20.138Z,12.17
2023-01-05T08:01:21.381Z,12.21
2023-01-05T08:02:22.374Z,12.2
2023-01-05T08:03:22.354Z,12.23
2023-01-05T08:04:23.155Z,12.28
2023-01-05T08:05:23.359Z,12.32
2023-01-05T08:06:23.623Z,12.3
2023-01-05T08:07:24.541Z,12.39
2023-01-05T08:08:30.311Z,12.37
2023-01-05T08:09:25.705Z,12.44
2023-01-05T08:10:26.352Z,12.45
2023-01-05T08:11:27.056Z,12.53
2023-01-05T08:12:27.138Z,12.58
2023-01-05T08:13:27.781Z,12.61
2023-01-05T08:14:28.883Z,12.62
2023-01-05T08:15:29.096Z,12.66
2023-01-05T08:16:29.847Z,12.72
2023-01-05T08:17:29.966Z,12.66
2023-01-05T08:18:30.515Z,12.63
2023-01-05T08:19:30.518Z,12.55
2023-01-05T08:20:31.053Z,12.68
2023-01-05T08:21:31.307Z,12.57
2023-01-05T08:22:32.334Z,12.57
2023-01-05T08:23:33.259Z,12.62
2023-01-05T08:24:33.242Z,12.61
2023-01-05T08:25:34.222Z,12.54
2023-01-05T08:26:34.177Z,12.57
2023-01-05T08:27:34.673Z,12.57
2023-01-05T08:28:41.514Z,12.54
2023-01-05T08:29:36.054Z,12.53
2023-01-05T08:30:36.433Z,12.44
2023-01-05T08:31:38.289Z,12.45
2023-01-05T08:32:38.519Z,12.47
2023-01-05T08:33:38.851Z,12.44
2023-01-05T08:34:40.619Z,12.4
2023-01-05T08:35:39.724Z,12.4
2023-01-05T08:36:40.205Z,12.43
2023-01-05T08:37:40.745Z,12.45
2023-01-05T08:38:41.267Z,12.47
2023-01-05T08:39:41.769Z,12.44
2023-01-05T08:40:42.284Z,12.47
2023-01-05T08:41:42.839Z,12.51
2023-01-05T08:42:43.569Z,12.54
2023-01-05T08:43:44.478Z,12.54
2023-01-05T08:44:44.767Z,12.47
2023-01-05T08:45:45.806Z,12.5
2023-01-05T08:46:46.458Z,12.48
2023-01-05T08:47:46.708Z,12.55
2023-01-05T08:48:47.662Z,12.44
2023-01-05T08:49:48.640Z,12.44
2023-01-05T08:50:48.739Z,12.48
2023-01-05T08:51:49.945Z,12.5
2023-01-05T08:52:49.997Z,12.48
2023-01-05T08:53:50.964Z,12.5
2023-01-05T08:54:51.473Z,12.55
2023-01-05T08:55:51.990Z,12.47
2023-01-05T08:56:52.499Z,12.5
2023-01-05T08:57:52.781Z,12.4
2023-01-05T08:58:52.454Z,12.43
2023-01-05T08:59:54.035Z,12.44
2023-01-05T09:00:54.215Z,12.36
2023-01-05T09:01:56.070Z,12.39
2023-01-05T09:02:56.161Z,12.36
2023-01-05T09:03:56.325Z,12.4
2023-01-05T09:04:57.435Z,12.33
2023-01-05T09:05:57.960Z,12.29
2023-01-05T09:06:58.187Z,12.28
2023-01-05T09:07:58.575Z,12.3
2023-01-05T09:08:59.853Z,12.33
2023-01-05T09:10:00.092Z,12.37
2023-01-05T09:11:01.056Z,12.32
2023-01-05T09:12:02.020Z,12.39
2023-01-05T09:13:02.464Z,12.36
2023-01-05T09:14:02.713Z,12.36
2023-01-05T09:15:03.930Z,12.44
2023-01-05T09:16:04.158Z,12.37
2023-01-05T09:17:13.567Z,12.37
2023-01-05T09:18:05.913Z,12.45
2023-01-05T09:19:05.468Z,12.43
2023-01-05T09:20:06.273Z,12.43
2023-01-05T09:21:07.532Z,12.37
2023-01-05T09:22:07.802Z,12.39
2023-01-05T09:23:07.640Z,12.43
2023-01-05T09:24:09.089Z,12.39
2023-01-05T09:25:09.684Z,12.39
2023-01-05T09:26:09.914Z,12.37
2023-01-05T09:27:09.862Z,12.36
2023-01-05T09:28:11.127Z,12.43
2023-01-05T09:29:11.095Z,12.4
2023-01-05T09:30:12.551Z,12.39
2023-01-05T09:31:12.996Z,12.32
2023-01-05T09:32:13.163Z,12.28
2023-01-05T09:33:14.241Z,12.3
2023-01-05T09:34:14.475Z,12.2
2023-01-05T09:35:14.531Z,12.14
2023-01-05T09:36:15.485Z,12.18
2023-01-05T09:37:16.146Z,12.2
2023-01-05T09:38:17.691Z,12.2
2023-01-05T09:39:17.878Z,12.18
2023-01-05T09:40:18.849Z,12.11
2023-01-05T09:41:19.073Z,12.08
2023-01-05T09:42:19.607Z,12.11
2023-01-05T09:43:20.229Z,12.1
2023-01-05T09:44:20.210Z,12.12
2023-01-05T09:45:21.222Z,12.18
2023-01-05T09:46:21.741Z,12.08
2023-01-05T09:47:21.901Z,12
2023-01-05T09:48:22.346Z,12.03
2023-01-05T09:49:23.361Z,12.07
2023-01-05T09:50:24.186Z,12.15
2023-01-05T09:51:24.874Z,12.15
2023-01-05T09:52:24.844Z,12.08
2023-01-05T09:53:25.778Z,12.08
2023-01-05T09:54:26.150Z,12.17
2023-01-05T09:55:26.695Z,12.07
2023-01-05T09:57:11.625Z,12.03
2023-01-05T09:57:28.907Z,12.11
2023-01-05T09:58:35.838Z,12.1
2023-01-05T09:59:30.099Z,12.03
2023-01-05T10:00:30.372Z,12.15
2023-01-05T10:01:30.858Z,12.2
2023-01-05T10:02:31.555Z,12.2
2023-01-05T10:04:11.525Z,12.18
2023-01-05T10:05:09.738Z,12.18
2023-01-05T10:06:10.558Z,12.14
2023-01-05T10:07:11.757Z,12.2
2023-01-05T10:08:11.986Z,12.32
2023-01-05T10:09:12.452Z,12.21
2023-01-05T10:10:13.834Z,12.21
2023-01-05T10:11:13.762Z,12.18
2023-01-05T10:12:14.277Z,12.25
2023-01-05T10:13:15.218Z,12.17
2023-01-05T10:14:15.476Z,12.18
2023-01-05T10:15:16.686Z,12.17
2023-01-05T10:16:16.904Z,12.15
2023-01-05T10:17:45.975Z,12.08
2023-01-05T10:18:17.622Z,12.07
2023-01-05T10:19:19.002Z,12.05
2023-01-05T10:20:19.321Z,12.08
2023-01-05T10:21:19.432Z,12.07
2023-01-05T10:22:20.104Z,12.05
2023-01-05T10:23:21.140Z,12.08
2023-01-05T10:24:21.726Z,12.17
2023-01-05T10:25:22.393Z,12.17
2023-01-05T10:26:23.070Z,12
2023-01-05T10:27:32.057Z,12.1
2023-01-05T10:28:25.182Z,12.17
2023-01-05T10:29:25.720Z,12.17
2023-01-05T10:30:26.665Z,12.25
2023-01-05T10:31:28.116Z,12.2
2023-01-05T10:32:27.860Z,12.18
2023-01-05T10:33:55.823Z,12.26
2023-01-05T10:34:54.301Z,12.21
2023-01-05T10:37:06.456Z,12.21
2023-01-05T10:37:24.723Z,12.17
2023-01-05T10:38:25.466Z,12.17
2023-01-05T10:39:26.465Z,12.3
2023-01-05T10:40:27.530Z,12.29
2023-01-05T10:41:28.477Z,12.2
2023-01-05T10:42:28.694Z,12.25
2023-01-05T10:43:28.633Z,12.3
2023-01-05T10:44:29.118Z,12.3
2023-01-05T10:45:29.730Z,12.28
2023-01-05T10:46:53.109Z,12.29
2023-01-05T10:47:30.837Z,12.37
2023-01-05T10:48:31.567Z,12.33
2023-01-05T10:49:31.807Z,12.33
2023-01-05T10:50:33.180Z,12.35
2023-01-05T10:51:33.416Z,12.43
2023-01-05T10:52:33.668Z,12.55
2023-01-05T10:53:34.693Z,12.55
2023-01-05T10:54:35.210Z,12.54
2023-01-05T10:55:36.023Z,12.65
2023-01-05T10:56:36.042Z,12.66
2023-01-05T10:57:41.204Z,12.65
2023-01-05T10:58:36.879Z,12.76
2023-01-05T10:59:37.816Z,12.78
2023-01-05T11:00:38.280Z,12.81
2023-01-05T11:01:38.693Z,12.87
2023-01-05T11:02:39.800Z,12.83
2023-01-05T11:04:36.127Z,12.93
2023-01-05T11:04:53.996Z,12.93
2023-01-05T11:05:54.599Z,12.99
2023-01-05T11:06:54.921Z,13.03
2023-01-05T11:07:56.303Z,13.05
2023-01-05T11:08:56.249Z,13.01
2023-01-05T11:09:57.473Z,13.12
2023-01-05T11:10:57.558Z,13.16
2023-01-05T11:11:58.211Z,13.23
2023-01-05T11:12:59.450Z,13.24
2023-01-05T11:13:59.423Z,13.28
2023-01-05T11:15:04.757Z,13.2
2023-01-05T11:16:00.611Z,13.33
2023-01-05T11:17:00.633Z,13.33
2023-01-05T11:18:01.287Z,13.19
2023-01-05T11:19:02.008Z,13.3
2023-01-05T11:20:02.701Z,13.23
2023-01-05T11:21:03.769Z,13.24
2023-01-05T11:22:08.019Z,13.24
2023-01-05T11:23:04.799Z,13.27
2023-01-05T11:24:05.071Z,13.19
2023-01-05T11:25:05.284Z,13.16
2023-01-05T11:26:06.130Z,13.21
2023-01-05T11:27:05.903Z,13.19
2023-01-05T11:28:11.332Z,13.2
2023-01-05T11:29:07.568Z,13.21
2023-01-05T11:30:08.094Z,13.2
2023-01-05T11:31:09.314Z,13.28
2023-01-05T11:32:09.943Z,13.2
2023-01-05T11:33:18.554Z,13.24
2023-01-05T11:34:11.376Z,13.24
2023-01-05T11:35:11.628Z,13.2
2023-01-05T11:36:12.219Z,13.17
2023-01-05T11:37:14.303Z,13.23
2023-01-05T11:38:14.404Z,13.12
2023-01-05T11:39:14.703Z,13.19
2023-01-05T11:40:15.413Z,13.21
2023-01-05T11:41:16.845Z,13.17
2023-01-05T11:42:25.885Z,13.17
2023-01-05T11:43:17.797Z,13.21
2023-01-05T11:44:18.035Z,13.06
2023-01-05T11:45:18.486Z,13.08
2023-01-05T11:46:19.544Z,13.05
2023-01-05T11:47:19.836Z,13.05
2023-01-05T11:48:20.507Z,13.03
2023-01-05T11:49:21.074Z,13.02
2023-01-05T11:50:22.051Z,13.05
2023-01-05T11:51:28.039Z,13.06
2023-01-05T11:52:23.244Z,13.05
2023-01-05T11:53:23.564Z,13.02
2023-01-05T11:54:23.692Z,13.05
2023-01-05T11:55:23.618Z,12.99
2023-01-05T11:56:24.290Z,13.05
2023-01-05T11:57:24.486Z,13.06
2023-01-05T11:58:24.919Z,13.03
2023-01-05T11:59:26.150Z,13.06
2023-01-05T12:00:26.924Z,12.99
2023-01-05T12:01:27.841Z,13.02
2023-01-05T12:02:27.898Z,12.94
2023-01-05T12:03:28.788Z,12.87
2023-01-05T12:04:29.426Z,12.88
2023-01-05T12:05:29.772Z,12.87
2023-01-05T12:06:31.221Z,12.87
2023-01-05T12:07:31.859Z,12.87
2023-01-05T12:08:33.211Z,12.83
2023-01-05T12:09:40.476Z,12.88
2023-01-05T12:10:34.157Z,12.8
2023-01-05T12:11:34.784Z,12.76
2023-01-05T12:12:35.004Z,12.81
2023-01-05T12:13:35.507Z,12.78
2023-01-05T12:14:35.463Z,12.8
2023-01-05T12:15:36.336Z,12.78
2023-01-05T12:16:37.117Z,12.78
2023-01-05T12:17:37.257Z,12.68
2023-01-05T12:18:38.192Z,12.66
2023-01-05T12:19:39.128Z,12.63
2023-01-05T12:20:39.071Z,12.63
2023-01-05T12:21:40.138Z,12.61
2023-01-05T12:22:40.057Z,12.53
2023-01-05T12:23:40.511Z,12.39
2023-01-05T12:24:41.027Z,12.44
2023-01-05T12:25:41.236Z,12.4
2023-01-05T12:26:42.108Z,12.5
2023-01-05T12:27:42.340Z,12.37
2023-01-05T12:30:09.373Z,12.44
2023-01-05T12:34:13.741Z,12.37
2023-01-05T12:34:30.906Z,12.4
2023-01-05T12:35:31.138Z,12.36
2023-01-05T12:36:32.356Z,12.3
2023-01-05T12:37:32.393Z,12.36
2023-01-05T12:38:33.345Z,12.36
2023-01-05T12:39:38.037Z,12.36
2023-01-05T12:40:34.802Z,12.37
2023-01-05T12:41:35.039Z,12.37
2023-01-05T12:42:35.674Z,12.32
2023-01-05T12:43:36.172Z,12.23
2023-01-05T12:44:36.827Z,12.35
2023-01-05T12:45:38.491Z,12.43
2023-01-05T12:46:39.338Z,12.36
2023-01-05T12:47:39.819Z,12.37
2023-01-05T12:48:40.101Z,12.32
2023-01-05T12:49:41.029Z,12.33
2023-01-05T12:50:41.793Z,12.37
2023-01-05T12:51:42.023Z,12.39
2023-01-05T12:52:42.426Z,12.37
2023-01-05T12:53:41.810Z,12.44
2023-01-05T12:54:43.567Z,12.32
2023-01-05T12:55:43.510Z,12.44
2023-01-05T12:56:44.469Z,12.39
2023-01-05T12:57:45.531Z,12.29
2023-01-05T12:58:54.044Z,12.26
2023-01-05T12:59:46.519Z,12.21
2023-01-05T13:00:47.262Z,12.32
2023-01-05T13:01:48.597Z,12.32
2023-01-05T13:02:48.000Z,12.17
2023-01-05T13:03:48.151Z,12.17
2023-01-05T13:04:57.150Z,12.28
2023-01-05T13:05:52.234Z,12.18
2023-01-05T13:06:51.482Z,12.3
2023-01-05T13:07:52.152Z,12.15
2023-01-05T13:08:52.363Z,12.15
2023-01-05T13:09:52.988Z,12.18
2023-01-05T13:10:52.903Z,12.29